FWV9AL LGSK-LEAL
Flight info
| Callsign | FWV9AL |
|---|---|
| Flight time | 3h 36m |
| Altitude | 33000 |
| Route | SIGFO UM749 ATV UB1 MONUV/N0464F320 UN45 ROTAS/N0462F300 N45 BINKO M978 GZO M980 DEXOL M726 NEVNA L30 OMENI/N0459F340 UL874 DIMAO UZ888 BABOR UA31 LABRO L150 MAGAL |
| Aircraft | A320/M-SDE3FGHIRWY/LB1 |
Departure
| Time | 2026-05-08 11:43 |
|---|---|
| Airport | Skiathos Island National Airport (LGSK) |
Arrival
| Time | 2026-05-08 15:19 |
|---|---|
| Airport | Alicante-Elche Miguel Hernández Airport (LEAL) |
| Time | Latitude | Longitude | Altitude | Speed | Heading |
|---|---|---|---|---|---|
| 2026-05-08 11:08 | 39.17950 | 23.50254 | 40 ft | 0 kts | 289° |
| 2026-05-08 11:08 | 39.17948 | 23.50260 | 40 ft | 0 kts | 289° |
| 2026-05-08 11:31 | 39.17943 | 23.50280 | 39 ft | 4 kts | 283° |
| 2026-05-08 11:31 | 39.17940 | 23.50314 | 39 ft | 4 kts | 266° |
| 2026-05-08 11:31 | 39.17945 | 23.50345 | 39 ft | 4 kts | 230° |
| 2026-05-08 11:32 | 39.17956 | 23.50357 | 37 ft | 0 kts | 199° |
| 2026-05-08 11:34 | 39.17955 | 23.50357 | 37 ft | 1 kts | 199° |
| 2026-05-08 11:34 | 39.17921 | 23.50341 | 40 ft | 9 kts | 200° |
| 2026-05-08 11:34 | 39.17822 | 23.50296 | 39 ft | 11 kts | 198° |
| 2026-05-08 11:35 | 39.17776 | 23.50276 | 39 ft | 11 kts | 199° |
| 2026-05-08 11:35 | 39.17708 | 23.50255 | 39 ft | 10 kts | 191° |
| 2026-05-08 11:35 | 39.17651 | 23.50232 | 39 ft | 8 kts | 199° |
| 2026-05-08 11:35 | 39.17607 | 23.50213 | 38 ft | 4 kts | 197° |
| 2026-05-08 11:36 | 39.17603 | 23.50213 | 38 ft | 0 kts | 182° |
| 2026-05-08 11:39 | 39.17569 | 23.50243 | 38 ft | 11 kts | 130° |
| 2026-05-08 11:40 | 39.17509 | 23.50273 | 40 ft | 11 kts | 189° |
| 2026-05-08 11:40 | 39.17414 | 23.50235 | 37 ft | 15 kts | 199° |
| 2026-05-08 11:40 | 39.17310 | 23.50186 | 30 ft | 18 kts | 200° |
| 2026-05-08 11:40 | 39.17184 | 23.50132 | 22 ft | 20 kts | 196° |
| 2026-05-08 11:41 | 39.17078 | 23.50077 | 17 ft | 15 kts | 217° |
| 2026-05-08 11:41 | 39.17021 | 23.50056 | 10 ft | 6 kts | 112° |
| 2026-05-08 11:41 | 39.17030 | 23.50070 | 12 ft | 0 kts | 15° |
| 2026-05-08 11:41 | 39.17040 | 23.50072 | 13 ft | 1 kts | 16° |
| 2026-05-08 11:42 | 39.17207 | 23.50143 | 23 ft | 63 kts | 19° |
| 2026-05-08 11:42 | 39.17845 | 23.50429 | 40 ft | 129 kts | 19° |
| 2026-05-08 11:42 | 39.18787 | 23.50851 | 484 ft | 146 kts | 20° |
| 2026-05-08 11:43 | 39.19753 | 23.51288 | 1195 ft | 149 kts | 22° |
| 2026-05-08 11:43 | 39.20739 | 23.51747 | 1844 ft | 156 kts | 22° |
| 2026-05-08 11:43 | 39.21834 | 23.52227 | 2025 ft | 180 kts | 20° |
| 2026-05-08 11:43 | 39.23093 | 23.52774 | 2233 ft | 201 kts | 20° |
| 2026-05-08 11:44 | 39.24478 | 23.53372 | 2554 ft | 216 kts | 20° |
| 2026-05-08 11:44 | 39.25916 | 23.54010 | 3043 ft | 221 kts | 21° |
| 2026-05-08 11:44 | 39.27339 | 23.54762 | 3558 ft | 223 kts | 37° |
| 2026-05-08 11:44 | 39.28233 | 23.56342 | 4057 ft | 221 kts | 80° |
| 2026-05-08 11:45 | 39.28142 | 23.58264 | 4596 ft | 214 kts | 110° |
| 2026-05-08 11:45 | 39.27639 | 23.60080 | 5108 ft | 216 kts | 117° |
| 2026-05-08 11:45 | 39.27059 | 23.61858 | 5578 ft | 220 kts | 118° |
| 2026-05-08 11:45 | 39.26313 | 23.63566 | 5985 ft | 218 kts | 145° |
| 2026-05-08 11:46 | 39.24977 | 23.64310 | 6462 ft | 209 kts | 180° |
| 2026-05-08 11:46 | 39.23557 | 23.64099 | 6909 ft | 206 kts | 204° |
| 2026-05-08 11:46 | 39.22246 | 23.63376 | 7405 ft | 206 kts | 205° |
| 2026-05-08 11:46 | 39.20889 | 23.62754 | 7889 ft | 208 kts | 204° |
| 2026-05-08 11:47 | 39.19504 | 23.62163 | 8375 ft | 210 kts | 204° |
| 2026-05-08 11:47 | 39.18079 | 23.61676 | 8822 ft | 217 kts | 192° |
| 2026-05-08 11:47 | 39.16497 | 23.61766 | 9018 ft | 243 kts | 181° |
| 2026-05-08 11:47 | 39.14720 | 23.62034 | 9196 ft | 268 kts | 180° |
| 2026-05-08 11:48 | 39.12843 | 23.62316 | 9655 ft | 280 kts | 180° |
| 2026-05-08 11:48 | 39.10885 | 23.62615 | 10284 ft | 285 kts | 180° |
| 2026-05-08 11:48 | 39.08901 | 23.62919 | 10917 ft | 289 kts | 179° |
| 2026-05-08 11:48 | 39.06890 | 23.63224 | 11540 ft | 293 kts | 180° |
| 2026-05-08 11:49 | 39.04852 | 23.63531 | 12180 ft | 296 kts | 179° |
| 2026-05-08 11:49 | 39.02794 | 23.63841 | 12816 ft | 300 kts | 179° |
| 2026-05-08 11:49 | 39.00708 | 23.64152 | 13448 ft | 303 kts | 179° |
| 2026-05-08 11:49 | 38.98599 | 23.64465 | 14053 ft | 307 kts | 179° |
| 2026-05-08 11:50 | 38.96467 | 23.64780 | 14604 ft | 310 kts | 179° |
| 2026-05-08 11:50 | 38.94309 | 23.65099 | 15158 ft | 313 kts | 179° |
| 2026-05-08 11:50 | 38.92101 | 23.65423 | 15394 ft | 328 kts | 179° |
| 2026-05-08 11:50 | 38.89772 | 23.65758 | 15529 ft | 346 kts | 179° |
| 2026-05-08 11:51 | 38.87321 | 23.66009 | 15648 ft | 357 kts | 188° |
| 2026-05-08 11:51 | 38.84944 | 23.65195 | 15774 ft | 356 kts | 214° |
| 2026-05-08 11:51 | 38.83082 | 23.63157 | 16124 ft | 353 kts | 236° |
| 2026-05-08 11:51 | 38.82014 | 23.60344 | 16575 ft | 353 kts | 255° |
| 2026-05-08 11:52 | 38.81344 | 23.57311 | 17073 ft | 355 kts | 256° |
| 2026-05-08 11:52 | 38.80699 | 23.54241 | 17582 ft | 357 kts | 256° |
| 2026-05-08 11:52 | 38.80057 | 23.51149 | 18079 ft | 360 kts | 256° |
| 2026-05-08 11:52 | 38.79414 | 23.48087 | 18544 ft | 362 kts | 256° |
| 2026-05-08 11:53 | 38.78748 | 23.44967 | 18995 ft | 364 kts | 256° |
| 2026-05-08 11:53 | 38.78072 | 23.41837 | 19467 ft | 365 kts | 256° |
| 2026-05-08 11:53 | 38.77390 | 23.38689 | 19897 ft | 368 kts | 256° |
| 2026-05-08 11:53 | 38.76700 | 23.35526 | 20358 ft | 369 kts | 256° |
| 2026-05-08 11:54 | 38.76007 | 23.32355 | 20805 ft | 370 kts | 256° |
| 2026-05-08 11:54 | 38.75311 | 23.29168 | 21259 ft | 372 kts | 256° |
| 2026-05-08 11:54 | 38.74616 | 23.25974 | 21689 ft | 373 kts | 256° |
| 2026-05-08 11:54 | 38.73920 | 23.22773 | 22106 ft | 374 kts | 257° |
| 2026-05-08 11:55 | 38.73220 | 23.19566 | 22552 ft | 374 kts | 257° |
| 2026-05-08 11:55 | 38.72517 | 23.16350 | 22973 ft | 375 kts | 257° |
| 2026-05-08 11:55 | 38.71811 | 23.13127 | 23373 ft | 377 kts | 257° |
| 2026-05-08 11:55 | 38.71101 | 23.09893 | 23757 ft | 378 kts | 257° |
| 2026-05-08 11:56 | 38.70389 | 23.06644 | 24115 ft | 379 kts | 257° |
| 2026-05-08 11:56 | 38.69671 | 23.03388 | 24454 ft | 380 kts | 257° |
| 2026-05-08 11:56 | 38.68949 | 23.00133 | 24794 ft | 380 kts | 257° |
| 2026-05-08 11:56 | 38.68226 | 22.96864 | 25101 ft | 382 kts | 257° |
| 2026-05-08 11:57 | 38.67514 | 22.93633 | 25402 ft | 383 kts | 256° |
| 2026-05-08 11:57 | 38.66790 | 22.90349 | 25687 ft | 385 kts | 257° |
| 2026-05-08 11:57 | 38.66061 | 22.87043 | 25990 ft | 386 kts | 256° |
| 2026-05-08 11:57 | 38.65329 | 22.83735 | 26282 ft | 387 kts | 256° |
| 2026-05-08 11:58 | 38.64590 | 22.80404 | 26578 ft | 389 kts | 256° |
| 2026-05-08 11:58 | 38.63849 | 22.77073 | 26896 ft | 390 kts | 256° |
| 2026-05-08 11:58 | 38.63106 | 22.73740 | 27183 ft | 391 kts | 256° |
| 2026-05-08 11:59 | 38.61606 | 22.67031 | 27712 ft | 393 kts | 256° |
| 2026-05-08 11:59 | 38.60851 | 22.63670 | 27973 ft | 394 kts | 256° |
| 2026-05-08 11:59 | 38.60093 | 22.60303 | 28196 ft | 395 kts | 256° |
| 2026-05-08 11:59 | 38.59332 | 22.56920 | 28432 ft | 397 kts | 256° |
| 2026-05-08 12:00 | 38.58571 | 22.53524 | 28684 ft | 398 kts | 256° |
| 2026-05-08 12:00 | 38.57808 | 22.50121 | 28937 ft | 399 kts | 256° |
| 2026-05-08 12:00 | 38.57041 | 22.46704 | 29187 ft | 401 kts | 256° |
| 2026-05-08 12:00 | 38.56270 | 22.43282 | 29571 ft | 400 kts | 256° |
| 2026-05-08 12:01 | 38.55501 | 22.39892 | 30038 ft | 396 kts | 256° |
| 2026-05-08 12:01 | 38.54735 | 22.36517 | 30391 ft | 395 kts | 256° |
| 2026-05-08 12:01 | 38.53972 | 22.33153 | 30709 ft | 394 kts | 255° |
| 2026-05-08 12:01 | 38.53208 | 22.29796 | 31085 ft | 392 kts | 255° |
| 2026-05-08 12:02 | 38.52448 | 22.26455 | 31428 ft | 390 kts | 255° |
| 2026-05-08 12:02 | 38.51692 | 22.23134 | 31735 ft | 388 kts | 255° |
| 2026-05-08 12:02 | 38.50935 | 22.19828 | 32037 ft | 387 kts | 255° |
| 2026-05-08 12:02 | 38.50178 | 22.16536 | 32310 ft | 386 kts | 255° |
| 2026-05-08 12:03 | 38.49423 | 22.13251 | 32585 ft | 385 kts | 255° |
| 2026-05-08 12:03 | 38.48673 | 22.09977 | 32922 ft | 383 kts | 255° |
| 2026-05-08 12:03 | 38.47937 | 22.06759 | 33072 ft | 382 kts | 255° |
| 2026-05-08 12:03 | 38.47195 | 22.03521 | 33091 ft | 380 kts | 255° |
| 2026-05-08 12:04 | 38.45707 | 21.97059 | 33096 ft | 379 kts | 255° |
| 2026-05-08 12:04 | 38.44217 | 21.90600 | 33085 ft | 379 kts | 255° |
| 2026-05-08 12:05 | 38.42722 | 21.84147 | 33088 ft | 379 kts | 255° |
| 2026-05-08 12:05 | 38.41227 | 21.77696 | 33102 ft | 379 kts | 254° |
| 2026-05-08 12:06 | 38.39719 | 21.71241 | 33055 ft | 380 kts | 255° |
| 2026-05-08 12:06 | 38.38206 | 21.64770 | 33063 ft | 381 kts | 255° |
| 2026-05-08 12:07 | 38.36699 | 21.58327 | 33067 ft | 381 kts | 255° |
| 2026-05-08 12:07 | 38.35176 | 21.51850 | 33042 ft | 381 kts | 255° |
| 2026-05-08 12:08 | 38.33656 | 21.45381 | 33045 ft | 381 kts | 255° |
| 2026-05-08 12:08 | 38.32134 | 21.38906 | 33050 ft | 381 kts | 254° |
| 2026-05-08 12:09 | 38.30603 | 21.32436 | 33046 ft | 381 kts | 254° |
| 2026-05-08 12:09 | 38.29074 | 21.26009 | 33055 ft | 381 kts | 254° |
| 2026-05-08 12:10 | 38.27524 | 21.19547 | 33018 ft | 382 kts | 255° |
| 2026-05-08 12:10 | 38.25980 | 21.13082 | 33036 ft | 382 kts | 255° |
| 2026-05-08 12:11 | 38.24437 | 21.06604 | 33046 ft | 383 kts | 255° |
| 2026-05-08 12:11 | 38.22888 | 21.00130 | 33052 ft | 383 kts | 255° |
| 2026-05-08 12:12 | 38.21323 | 20.93644 | 33059 ft | 383 kts | 254° |
| 2026-05-08 12:12 | 38.19753 | 20.87168 | 33061 ft | 383 kts | 254° |
| 2026-05-08 12:13 | 38.18181 | 20.80688 | 33065 ft | 383 kts | 255° |
| 2026-05-08 12:13 | 38.16616 | 20.74209 | 33070 ft | 384 kts | 254° |
| 2026-05-08 12:14 | 38.15042 | 20.67734 | 33027 ft | 384 kts | 255° |
| 2026-05-08 12:14 | 38.13457 | 20.61244 | 33008 ft | 385 kts | 255° |
| 2026-05-08 12:15 | 38.11864 | 20.54752 | 33012 ft | 385 kts | 254° |
| 2026-05-08 12:15 | 38.10271 | 20.48263 | 33019 ft | 385 kts | 254° |
| 2026-05-08 12:16 | 38.08691 | 20.41824 | 33048 ft | 385 kts | 255° |
| 2026-05-08 12:16 | 38.07100 | 20.35347 | 33047 ft | 384 kts | 255° |
| 2026-05-08 12:17 | 38.05502 | 20.28883 | 33048 ft | 384 kts | 255° |
| 2026-05-08 12:17 | 38.03902 | 20.22427 | 33049 ft | 384 kts | 255° |
| 2026-05-08 12:18 | 38.02291 | 20.15973 | 33002 ft | 384 kts | 255° |
| 2026-05-08 12:18 | 38.00681 | 20.09504 | 33027 ft | 385 kts | 255° |
| 2026-05-08 12:19 | 37.99062 | 20.03028 | 33024 ft | 386 kts | 255° |
| 2026-05-08 12:19 | 37.97437 | 19.96542 | 33025 ft | 386 kts | 255° |
| 2026-05-08 12:20 | 37.95810 | 19.90054 | 33020 ft | 386 kts | 255° |
| 2026-05-08 12:20 | 37.94175 | 19.83571 | 33022 ft | 386 kts | 254° |
| 2026-05-08 12:21 | 37.92532 | 19.77095 | 33026 ft | 386 kts | 255° |
| 2026-05-08 12:21 | 37.91170 | 19.71705 | 33027 ft | 386 kts | 255° |
| 2026-05-08 12:22 | 37.89259 | 19.64169 | 32995 ft | 386 kts | 255° |
| 2026-05-08 12:22 | 37.87879 | 19.58741 | 32995 ft | 387 kts | 255° |
| 2026-05-08 12:23 | 37.86222 | 19.52236 | 32993 ft | 388 kts | 255° |
| 2026-05-08 12:23 | 37.84573 | 19.45776 | 33001 ft | 389 kts | 255° |
| 2026-05-08 12:24 | 37.82904 | 19.39267 | 33001 ft | 389 kts | 255° |
| 2026-05-08 12:24 | 37.81224 | 19.32757 | 32997 ft | 389 kts | 255° |
| 2026-05-08 12:25 | 37.79544 | 19.26246 | 32996 ft | 389 kts | 255° |
| 2026-05-08 12:25 | 37.77860 | 19.19734 | 32997 ft | 390 kts | 255° |
| 2026-05-08 12:26 | 37.76176 | 19.13223 | 32970 ft | 390 kts | 254° |
| 2026-05-08 12:26 | 37.74481 | 19.06708 | 32976 ft | 391 kts | 255° |
| 2026-05-08 12:27 | 37.72783 | 19.00166 | 32981 ft | 392 kts | 255° |
| 2026-05-08 12:27 | 37.71075 | 18.93616 | 32979 ft | 393 kts | 255° |
| 2026-05-08 12:28 | 37.69359 | 18.87057 | 32984 ft | 393 kts | 255° |
| 2026-05-08 12:28 | 37.67641 | 18.80507 | 32985 ft | 393 kts | 255° |
| 2026-05-08 12:29 | 37.65915 | 18.73954 | 32998 ft | 393 kts | 255° |
| 2026-05-08 12:29 | 37.64187 | 18.67402 | 32994 ft | 394 kts | 255° |
| 2026-05-08 12:30 | 37.62454 | 18.60854 | 32957 ft | 394 kts | 255° |
| 2026-05-08 12:30 | 37.60715 | 18.54299 | 32960 ft | 395 kts | 255° |
| 2026-05-08 12:31 | 37.58967 | 18.47722 | 32965 ft | 396 kts | 255° |
| 2026-05-08 12:31 | 37.57219 | 18.41179 | 32974 ft | 397 kts | 255° |
| 2026-05-08 12:32 | 37.55461 | 18.34580 | 32977 ft | 397 kts | 255° |
| 2026-05-08 12:32 | 37.53698 | 18.27990 | 32981 ft | 397 kts | 255° |
| 2026-05-08 12:33 | 37.51929 | 18.21389 | 32982 ft | 397 kts | 255° |
| 2026-05-08 12:33 | 37.50158 | 18.14802 | 32984 ft | 397 kts | 255° |
| 2026-05-08 12:34 | 37.48373 | 18.08211 | 32987 ft | 397 kts | 255° |
| 2026-05-08 12:34 | 37.46586 | 18.01620 | 32957 ft | 398 kts | 254° |
| 2026-05-08 12:35 | 37.44795 | 17.95012 | 32963 ft | 399 kts | 254° |
| 2026-05-08 12:35 | 37.43012 | 17.88431 | 32967 ft | 400 kts | 254° |
| 2026-05-08 12:36 | 37.41202 | 17.81808 | 32967 ft | 400 kts | 254° |
| 2026-05-08 12:36 | 37.39391 | 17.75190 | 32973 ft | 400 kts | 254° |
| 2026-05-08 12:37 | 37.37571 | 17.68572 | 32986 ft | 400 kts | 254° |
| 2026-05-08 12:37 | 37.35753 | 17.61962 | 32988 ft | 400 kts | 254° |
| 2026-05-08 12:38 | 37.33938 | 17.55352 | 32987 ft | 400 kts | 254° |
| 2026-05-08 12:38 | 37.32123 | 17.48750 | 32960 ft | 400 kts | 254° |
| 2026-05-08 12:39 | 37.30290 | 17.42134 | 32957 ft | 401 kts | 254° |
| 2026-05-08 12:39 | 37.28448 | 17.35519 | 32963 ft | 402 kts | 254° |
| 2026-05-08 12:40 | 37.26611 | 17.28925 | 32964 ft | 402 kts | 254° |
| 2026-05-08 12:40 | 37.24767 | 17.22301 | 32964 ft | 402 kts | 254° |
| 2026-05-08 12:41 | 37.22926 | 17.15676 | 32969 ft | 402 kts | 254° |
| 2026-05-08 12:41 | 37.21070 | 17.09055 | 32971 ft | 402 kts | 254° |
| 2026-05-08 12:42 | 37.19209 | 17.02437 | 32976 ft | 402 kts | 254° |
| 2026-05-08 12:42 | 37.17341 | 16.95822 | 32973 ft | 402 kts | 254° |
| 2026-05-08 12:43 | 37.15474 | 16.89213 | 32971 ft | 402 kts | 254° |
| 2026-05-08 12:43 | 37.13599 | 16.82611 | 32975 ft | 402 kts | 254° |
| 2026-05-08 12:44 | 37.11727 | 16.76006 | 32972 ft | 402 kts | 254° |
| 2026-05-08 12:44 | 37.09858 | 16.69402 | 32973 ft | 402 kts | 254° |
| 2026-05-08 12:45 | 37.07979 | 16.62796 | 32969 ft | 402 kts | 253° |
| 2026-05-08 12:45 | 37.06103 | 16.56243 | 32966 ft | 403 kts | 253° |
| 2026-05-08 12:46 | 37.04208 | 16.49647 | 32961 ft | 403 kts | 253° |
| 2026-05-08 12:46 | 37.02300 | 16.43008 | 32943 ft | 403 kts | 253° |
| 2026-05-08 12:47 | 37.00403 | 16.36407 | 32945 ft | 403 kts | 253° |
| 2026-05-08 12:47 | 36.98512 | 16.29842 | 32958 ft | 404 kts | 253° |
| 2026-05-08 12:48 | 36.96591 | 16.23194 | 32966 ft | 404 kts | 253° |
| 2026-05-08 12:48 | 36.94674 | 16.16602 | 32963 ft | 404 kts | 253° |
| 2026-05-08 12:49 | 36.92768 | 16.10043 | 32967 ft | 404 kts | 253° |
| 2026-05-08 12:49 | 36.90851 | 16.03449 | 32967 ft | 404 kts | 253° |
| 2026-05-08 12:50 | 36.88924 | 15.96854 | 32973 ft | 404 kts | 253° |
| 2026-05-08 12:50 | 36.86987 | 15.90262 | 32937 ft | 404 kts | 253° |
| 2026-05-08 12:51 | 36.84084 | 15.80372 | 32946 ft | 405 kts | 253° |
| 2026-05-08 12:52 | 36.82142 | 15.73763 | 32943 ft | 405 kts | 253° |
| 2026-05-08 12:52 | 36.79217 | 15.63842 | 32950 ft | 406 kts | 252° |
| 2026-05-08 12:53 | 36.77264 | 15.57275 | 32960 ft | 406 kts | 252° |
| 2026-05-08 12:53 | 36.75299 | 15.50671 | 32963 ft | 406 kts | 252° |
| 2026-05-08 12:54 | 36.73330 | 15.44060 | 32958 ft | 406 kts | 252° |
| 2026-05-08 12:54 | 36.71359 | 15.37465 | 32956 ft | 406 kts | 252° |
| 2026-05-08 12:55 | 36.69389 | 15.30872 | 32945 ft | 406 kts | 252° |
| 2026-05-08 12:55 | 36.67420 | 15.24276 | 32948 ft | 406 kts | 252° |
| 2026-05-08 12:56 | 36.65435 | 15.17680 | 32955 ft | 407 kts | 252° |
| 2026-05-08 12:56 | 36.63445 | 15.11089 | 32963 ft | 406 kts | 252° |
| 2026-05-08 12:57 | 36.61458 | 15.04508 | 32971 ft | 406 kts | 252° |
| 2026-05-08 12:57 | 36.59471 | 14.97929 | 32970 ft | 406 kts | 252° |
| 2026-05-08 12:58 | 36.57491 | 14.91401 | 32980 ft | 406 kts | 252° |
| 2026-05-08 12:58 | 36.55493 | 14.84841 | 32976 ft | 405 kts | 252° |
| 2026-05-08 12:59 | 36.53497 | 14.78281 | 32950 ft | 406 kts | 252° |
| 2026-05-08 12:59 | 36.51487 | 14.71712 | 32955 ft | 407 kts | 252° |
| 2026-05-08 13:00 | 36.49472 | 14.65132 | 32963 ft | 407 kts | 252° |
| 2026-05-08 13:00 | 36.47454 | 14.58565 | 32969 ft | 407 kts | 252° |
| 2026-05-08 13:01 | 36.45432 | 14.51988 | 32975 ft | 407 kts | 252° |
| 2026-05-08 13:01 | 36.43408 | 14.45416 | 32972 ft | 407 kts | 251° |
| 2026-05-08 13:02 | 36.41391 | 14.38879 | 32973 ft | 407 kts | 251° |
| 2026-05-08 13:02 | 36.39361 | 14.32308 | 32970 ft | 407 kts | 251° |
| 2026-05-08 13:03 | 36.37323 | 14.25744 | 32948 ft | 407 kts | 251° |
| 2026-05-08 13:03 | 36.35277 | 14.19181 | 32951 ft | 408 kts | 251° |
| 2026-05-08 13:04 | 36.33225 | 14.12626 | 32957 ft | 408 kts | 251° |
| 2026-05-08 13:04 | 36.31173 | 14.06058 | 32965 ft | 409 kts | 251° |
| 2026-05-08 13:05 | 36.29125 | 13.99527 | 32973 ft | 409 kts | 251° |
| 2026-05-08 13:05 | 36.27063 | 13.92952 | 32974 ft | 409 kts | 251° |
| 2026-05-08 13:06 | 36.24993 | 13.86378 | 32980 ft | 409 kts | 251° |
| 2026-05-08 13:06 | 36.22918 | 13.79812 | 32984 ft | 409 kts | 251° |
| 2026-05-08 13:07 | 36.20845 | 13.73249 | 32988 ft | 409 kts | 251° |
| 2026-05-08 13:07 | 36.18758 | 13.66682 | 32973 ft | 410 kts | 251° |
| 2026-05-08 13:08 | 36.16667 | 13.60107 | 32980 ft | 411 kts | 251° |
| 2026-05-08 13:08 | 36.14589 | 13.53579 | 32984 ft | 411 kts | 251° |
| 2026-05-08 13:09 | 36.12490 | 13.47008 | 32979 ft | 411 kts | 251° |
| 2026-05-08 13:09 | 36.10381 | 13.40436 | 32982 ft | 411 kts | 251° |
| 2026-05-08 13:10 | 36.08629 | 13.34965 | 32987 ft | 412 kts | 251° |
| 2026-05-08 13:10 | 36.06511 | 13.28385 | 32990 ft | 412 kts | 251° |
| 2026-05-08 13:11 | 36.04754 | 13.21686 | 32991 ft | 408 kts | 263° |
| 2026-05-08 13:11 | 36.04587 | 13.14703 | 33081 ft | 409 kts | 271° |
| 2026-05-08 13:12 | 36.04621 | 13.07534 | 33002 ft | 422 kts | 270° |
| 2026-05-08 13:12 | 36.04613 | 13.00180 | 33001 ft | 433 kts | 270° |
| 2026-05-08 13:13 | 36.04617 | 12.92713 | 33126 ft | 439 kts | 271° |
| 2026-05-08 13:13 | 36.04635 | 12.88977 | 33576 ft | 428 kts | 272° |
| 2026-05-08 13:13 | 36.04667 | 12.85336 | 34031 ft | 414 kts | 272° |
| 2026-05-08 13:14 | 36.04709 | 12.81885 | 34364 ft | 390 kts | 272° |
| 2026-05-08 13:14 | 36.04726 | 12.78533 | 33563 ft | 396 kts | 271° |
| 2026-05-08 13:14 | 36.04708 | 12.75060 | 33147 ft | 411 kts | 270° |
| 2026-05-08 13:14 | 36.04680 | 12.71489 | 32968 ft | 421 kts | 270° |
| 2026-05-08 13:15 | 36.04638 | 12.64172 | 32998 ft | 431 kts | 270° |
| 2026-05-08 13:15 | 36.04629 | 12.56685 | 33005 ft | 441 kts | 270° |
| 2026-05-08 13:16 | 36.04634 | 12.52901 | 33257 ft | 433 kts | 272° |
| 2026-05-08 13:16 | 36.04647 | 12.49279 | 33470 ft | 414 kts | 271° |
| 2026-05-08 13:16 | 36.04633 | 12.42207 | 33472 ft | 415 kts | 270° |
| 2026-05-08 13:17 | 36.04600 | 12.35095 | 33463 ft | 407 kts | 270° |
| 2026-05-08 13:17 | 36.04570 | 12.28055 | 33478 ft | 418 kts | 270° |
| 2026-05-08 13:18 | 36.04543 | 12.20802 | 33471 ft | 417 kts | 270° |
| 2026-05-08 13:18 | 36.04529 | 12.17290 | 33467 ft | 403 kts | 270° |
| 2026-05-08 13:18 | 36.04514 | 12.13798 | 33472 ft | 410 kts | 270° |
| 2026-05-08 13:19 | 36.04486 | 12.06752 | 33204 ft | 406 kts | 270° |
| 2026-05-08 13:19 | 36.04468 | 12.03276 | 32973 ft | 405 kts | 270° |
| 2026-05-08 13:19 | 36.04446 | 11.99795 | 33006 ft | 405 kts | 270° |
| 2026-05-08 13:20 | 36.04401 | 11.92825 | 33005 ft | 405 kts | 270° |
| 2026-05-08 13:20 | 36.04355 | 11.85909 | 33005 ft | 405 kts | 270° |
| 2026-05-08 13:21 | 36.04303 | 11.78936 | 33006 ft | 405 kts | 270° |
| 2026-05-08 13:21 | 36.04253 | 11.71984 | 33003 ft | 405 kts | 270° |
| 2026-05-08 13:22 | 36.04196 | 11.65029 | 33008 ft | 404 kts | 269° |
| 2026-05-08 13:22 | 36.04137 | 11.58074 | 33014 ft | 404 kts | 269° |
| 2026-05-08 13:23 | 36.04069 | 11.51141 | 33019 ft | 403 kts | 269° |
| 2026-05-08 13:23 | 36.04147 | 11.44210 | 33008 ft | 403 kts | 272° |
| 2026-05-08 13:24 | 36.04316 | 11.39949 | 33008 ft | 403 kts | 273° |
| 2026-05-08 13:26 | 36.04536 | 11.35041 | 33007 ft | 403 kts | 272° |
| 2026-05-08 13:26 | 36.04815 | 11.28136 | 33012 ft | 402 kts | 272° |
| 2026-05-08 13:27 | 36.05057 | 11.21229 | 33013 ft | 401 kts | 272° |
| 2026-05-08 13:27 | 36.05273 | 11.14348 | 33010 ft | 401 kts | 272° |
| 2026-05-08 13:28 | 36.05491 | 11.07461 | 33007 ft | 401 kts | 272° |
| 2026-05-08 13:28 | 36.05713 | 11.00569 | 33002 ft | 401 kts | 272° |
| 2026-05-08 13:29 | 36.05930 | 10.93728 | 33003 ft | 401 kts | 272° |
| 2026-05-08 13:29 | 36.06147 | 10.86841 | 32999 ft | 401 kts | 272° |
| 2026-05-08 13:30 | 36.06358 | 10.79959 | 32993 ft | 401 kts | 272° |
| 2026-05-08 13:30 | 36.06560 | 10.73069 | 32990 ft | 401 kts | 272° |
| 2026-05-08 13:31 | 36.06760 | 10.66188 | 32984 ft | 401 kts | 271° |
| 2026-05-08 13:31 | 36.06956 | 10.59297 | 32979 ft | 401 kts | 271° |
| 2026-05-08 13:32 | 36.07147 | 10.52417 | 32980 ft | 400 kts | 271° |
| 2026-05-08 13:32 | 36.07350 | 10.45547 | 32984 ft | 399 kts | 274° |
| 2026-05-08 13:33 | 36.08626 | 10.38917 | 32986 ft | 401 kts | 286° |
| 2026-05-08 13:33 | 36.10388 | 10.32379 | 32985 ft | 401 kts | 286° |
| 2026-05-08 13:34 | 36.12134 | 10.25826 | 32981 ft | 401 kts | 285° |
| 2026-05-08 13:34 | 36.13875 | 10.19271 | 32971 ft | 401 kts | 285° |
| 2026-05-08 13:35 | 36.15446 | 10.12654 | 32960 ft | 400 kts | 277° |
| 2026-05-08 13:35 | 36.16283 | 10.05842 | 32960 ft | 400 kts | 277° |
| 2026-05-08 13:36 | 36.17118 | 9.99021 | 32961 ft | 401 kts | 277° |
| 2026-05-08 13:36 | 36.17952 | 9.92192 | 32964 ft | 402 kts | 277° |
| 2026-05-08 13:37 | 36.18785 | 9.85349 | 32968 ft | 402 kts | 277° |
| 2026-05-08 13:37 | 36.19616 | 9.78558 | 32994 ft | 401 kts | 277° |
| 2026-05-08 13:38 | 36.20443 | 9.71750 | 32992 ft | 399 kts | 277° |
| 2026-05-08 13:38 | 36.21260 | 9.64956 | 32995 ft | 398 kts | 276° |
| 2026-05-08 13:39 | 36.22067 | 9.58165 | 32989 ft | 398 kts | 276° |
| 2026-05-08 13:39 | 36.22870 | 9.51394 | 32994 ft | 397 kts | 276° |
| 2026-05-08 13:40 | 36.23667 | 9.44629 | 33016 ft | 396 kts | 276° |
| 2026-05-08 13:40 | 36.24452 | 9.37925 | 33013 ft | 394 kts | 276° |
| 2026-05-08 13:41 | 36.25245 | 9.31213 | 33004 ft | 393 kts | 277° |
| 2026-05-08 13:41 | 36.26268 | 9.24563 | 32998 ft | 393 kts | 279° |
| 2026-05-08 13:42 | 36.27425 | 9.17947 | 32992 ft | 392 kts | 279° |
| 2026-05-08 13:42 | 36.28558 | 9.11330 | 32984 ft | 392 kts | 279° |
| 2026-05-08 13:43 | 36.29644 | 9.04714 | 32980 ft | 392 kts | 278° |
| 2026-05-08 13:43 | 36.30705 | 8.98117 | 32979 ft | 392 kts | 278° |
| 2026-05-08 13:44 | 36.31771 | 8.91494 | 32980 ft | 392 kts | 278° |
| 2026-05-08 13:44 | 36.32842 | 8.84864 | 32983 ft | 392 kts | 278° |
| 2026-05-08 13:45 | 36.33910 | 8.78243 | 32978 ft | 392 kts | 278° |
| 2026-05-08 13:45 | 36.34967 | 8.71622 | 32978 ft | 391 kts | 278° |
| 2026-05-08 13:46 | 36.36028 | 8.65002 | 32973 ft | 391 kts | 278° |
| 2026-05-08 13:46 | 36.37084 | 8.58383 | 32970 ft | 391 kts | 278° |
| 2026-05-08 13:47 | 36.38129 | 8.51759 | 32968 ft | 391 kts | 278° |
| 2026-05-08 13:47 | 36.39167 | 8.45134 | 32966 ft | 390 kts | 278° |
| 2026-05-08 13:48 | 36.40208 | 8.38520 | 32966 ft | 391 kts | 278° |
| 2026-05-08 13:48 | 36.40697 | 8.31844 | 32974 ft | 388 kts | 270° |
| 2026-05-08 13:49 | 36.40941 | 8.25151 | 32974 ft | 388 kts | 270° |
| 2026-05-08 13:49 | 36.41177 | 8.18470 | 32975 ft | 387 kts | 270° |
| 2026-05-08 13:50 | 36.41411 | 8.11786 | 32970 ft | 387 kts | 270° |
| 2026-05-08 13:50 | 36.41648 | 8.05150 | 32966 ft | 387 kts | 270° |
| 2026-05-08 13:51 | 36.41887 | 7.98462 | 32965 ft | 388 kts | 270° |
| 2026-05-08 13:51 | 36.42115 | 7.91773 | 32981 ft | 387 kts | 270° |
| 2026-05-08 13:52 | 36.42336 | 7.85091 | 32983 ft | 387 kts | 270° |
| 2026-05-08 13:52 | 36.42557 | 7.78412 | 32979 ft | 386 kts | 270° |
| 2026-05-08 13:53 | 36.42771 | 7.71748 | 32977 ft | 386 kts | 270° |
| 2026-05-08 13:53 | 36.42989 | 7.65076 | 32972 ft | 386 kts | 270° |
| 2026-05-08 13:54 | 36.43199 | 7.58464 | 32977 ft | 385 kts | 270° |
| 2026-05-08 13:54 | 36.43399 | 7.51829 | 32979 ft | 384 kts | 269° |
| 2026-05-08 13:55 | 36.43595 | 7.45199 | 32976 ft | 384 kts | 269° |
| 2026-05-08 13:56 | 36.43894 | 7.35267 | 32973 ft | 384 kts | 269° |
| 2026-05-08 13:56 | 36.44089 | 7.28643 | 32970 ft | 384 kts | 270° |
| 2026-05-08 13:57 | 36.44279 | 7.22024 | 32966 ft | 384 kts | 269° |
| 2026-05-08 13:57 | 36.44460 | 7.15399 | 32967 ft | 383 kts | 269° |
| 2026-05-08 13:58 | 36.44640 | 7.08786 | 32965 ft | 383 kts | 269° |
| 2026-05-08 13:58 | 36.44818 | 7.02180 | 32966 ft | 383 kts | 269° |
| 2026-05-08 13:59 | 36.44988 | 6.95564 | 32976 ft | 383 kts | 269° |
| 2026-05-08 13:59 | 36.45157 | 6.88957 | 32984 ft | 383 kts | 269° |
| 2026-05-08 14:00 | 36.45301 | 6.83461 | 33008 ft | 383 kts | 269° |
| 2026-05-08 14:00 | 36.45464 | 6.76860 | 33020 ft | 382 kts | 269° |
| 2026-05-08 14:01 | 36.45621 | 6.70266 | 33027 ft | 381 kts | 269° |
| 2026-05-08 14:01 | 36.45769 | 6.63690 | 33023 ft | 381 kts | 269° |
| 2026-05-08 14:02 | 36.45918 | 6.57127 | 33014 ft | 380 kts | 269° |
| 2026-05-08 14:02 | 36.46070 | 6.50567 | 32965 ft | 380 kts | 269° |
| 2026-05-08 14:03 | 36.46220 | 6.44010 | 32983 ft | 379 kts | 269° |
| 2026-05-08 14:03 | 36.46359 | 6.37467 | 32968 ft | 378 kts | 269° |
| 2026-05-08 14:04 | 36.46490 | 6.30935 | 32973 ft | 378 kts | 269° |
| 2026-05-08 14:04 | 36.46626 | 6.24405 | 32970 ft | 378 kts | 269° |
| 2026-05-08 14:05 | 36.46751 | 6.17873 | 32973 ft | 378 kts | 269° |
| 2026-05-08 14:05 | 36.46871 | 6.11389 | 32970 ft | 378 kts | 269° |
| 2026-05-08 14:06 | 36.46995 | 6.04872 | 32989 ft | 377 kts | 269° |
| 2026-05-08 14:06 | 36.47115 | 5.98362 | 32982 ft | 376 kts | 269° |
| 2026-05-08 14:07 | 36.47232 | 5.91870 | 32973 ft | 375 kts | 269° |
| 2026-05-08 14:07 | 36.47343 | 5.85384 | 32973 ft | 375 kts | 269° |
| 2026-05-08 14:08 | 36.47444 | 5.78912 | 32969 ft | 375 kts | 268° |
| 2026-05-08 14:08 | 36.47539 | 5.72444 | 32974 ft | 374 kts | 269° |
| 2026-05-08 14:09 | 36.47639 | 5.65984 | 32983 ft | 374 kts | 268° |
| 2026-05-08 14:09 | 36.47737 | 5.59562 | 32984 ft | 374 kts | 268° |
| 2026-05-08 14:10 | 36.47828 | 5.53111 | 32981 ft | 373 kts | 268° |
| 2026-05-08 14:10 | 36.47918 | 5.46657 | 32989 ft | 373 kts | 268° |
| 2026-05-08 14:11 | 36.48008 | 5.40209 | 32990 ft | 373 kts | 268° |
| 2026-05-08 14:11 | 36.48084 | 5.33757 | 32987 ft | 373 kts | 268° |
| 2026-05-08 14:12 | 36.48155 | 5.27305 | 32997 ft | 373 kts | 268° |
| 2026-05-08 14:12 | 36.48229 | 5.20858 | 32987 ft | 373 kts | 268° |
| 2026-05-08 14:13 | 36.48299 | 5.14414 | 32972 ft | 373 kts | 268° |
| 2026-05-08 14:13 | 36.48363 | 5.07958 | 32962 ft | 374 kts | 268° |
| 2026-05-08 14:14 | 36.48428 | 5.01537 | 32964 ft | 374 kts | 268° |
| 2026-05-08 14:14 | 36.49058 | 4.95088 | 32986 ft | 377 kts | 275° |
| 2026-05-08 14:15 | 36.49861 | 4.88665 | 32981 ft | 376 kts | 274° |
| 2026-05-08 14:15 | 36.50646 | 4.82246 | 32968 ft | 375 kts | 274° |
| 2026-05-08 14:16 | 36.51427 | 4.75829 | 32965 ft | 375 kts | 274° |
| 2026-05-08 14:16 | 36.52218 | 4.69414 | 32957 ft | 375 kts | 274° |
| 2026-05-08 14:17 | 36.53005 | 4.63005 | 32958 ft | 375 kts | 274° |
| 2026-05-08 14:17 | 36.53780 | 4.56585 | 32977 ft | 375 kts | 274° |
| 2026-05-08 14:18 | 36.54544 | 4.50177 | 32973 ft | 374 kts | 274° |
| 2026-05-08 14:18 | 36.55312 | 4.43768 | 32964 ft | 375 kts | 274° |
| 2026-05-08 14:19 | 36.56080 | 4.37361 | 32960 ft | 375 kts | 274° |
| 2026-05-08 14:19 | 36.56837 | 4.30981 | 32962 ft | 375 kts | 274° |
| 2026-05-08 14:20 | 36.57599 | 4.24565 | 32964 ft | 374 kts | 274° |
| 2026-05-08 14:20 | 36.58352 | 4.18159 | 32968 ft | 375 kts | 274° |
| 2026-05-08 14:21 | 36.59101 | 4.11744 | 32966 ft | 374 kts | 274° |
| 2026-05-08 14:21 | 36.59851 | 4.05329 | 32961 ft | 375 kts | 274° |
| 2026-05-08 14:22 | 36.60600 | 3.98906 | 32971 ft | 375 kts | 274° |
| 2026-05-08 14:22 | 36.61339 | 3.92496 | 32973 ft | 374 kts | 274° |
| 2026-05-08 14:23 | 36.62077 | 3.86090 | 32977 ft | 374 kts | 274° |
| 2026-05-08 14:23 | 36.62808 | 3.79691 | 32982 ft | 373 kts | 274° |
| 2026-05-08 14:24 | 36.63534 | 3.73294 | 32971 ft | 373 kts | 274° |
| 2026-05-08 14:24 | 36.64252 | 3.66938 | 32968 ft | 373 kts | 274° |
| 2026-05-08 14:25 | 36.64971 | 3.60537 | 32970 ft | 373 kts | 274° |
| 2026-05-08 14:25 | 36.65678 | 3.54136 | 32972 ft | 373 kts | 273° |
| 2026-05-08 14:26 | 36.66356 | 3.47729 | 32981 ft | 373 kts | 273° |
| 2026-05-08 14:26 | 36.67032 | 3.41330 | 32987 ft | 373 kts | 273° |
| 2026-05-08 14:27 | 36.67704 | 3.34922 | 32995 ft | 373 kts | 273° |
| 2026-05-08 14:27 | 36.68371 | 3.28512 | 32998 ft | 373 kts | 273° |
| 2026-05-08 14:28 | 36.68990 | 3.22106 | 32997 ft | 371 kts | 269° |
| 2026-05-08 14:28 | 36.68616 | 3.15748 | 32997 ft | 368 kts | 262° |
| 2026-05-08 14:29 | 36.68083 | 3.09413 | 32995 ft | 368 kts | 262° |
| 2026-05-08 14:29 | 36.67547 | 3.03066 | 32995 ft | 368 kts | 262° |
| 2026-05-08 14:30 | 36.67009 | 2.96770 | 32989 ft | 368 kts | 262° |
| 2026-05-08 14:30 | 36.66465 | 2.90440 | 32984 ft | 368 kts | 262° |
| 2026-05-08 14:31 | 36.65919 | 2.84107 | 32981 ft | 368 kts | 262° |
| 2026-05-08 14:31 | 36.65369 | 2.77772 | 32976 ft | 367 kts | 262° |
| 2026-05-08 14:32 | 36.64542 | 2.68278 | 32975 ft | 367 kts | 262° |
| 2026-05-08 14:32 | 36.63989 | 2.61996 | 33007 ft | 367 kts | 262° |
| 2026-05-08 14:33 | 36.63430 | 2.55693 | 33006 ft | 366 kts | 262° |
| 2026-05-08 14:33 | 36.62868 | 2.49405 | 33001 ft | 365 kts | 262° |
| 2026-05-08 14:34 | 36.62301 | 2.43121 | 32986 ft | 365 kts | 262° |
| 2026-05-08 14:34 | 36.61738 | 2.36838 | 32971 ft | 365 kts | 262° |
| 2026-05-08 14:35 | 36.61170 | 2.30553 | 32966 ft | 366 kts | 262° |
| 2026-05-08 14:35 | 36.60625 | 2.24259 | 32979 ft | 366 kts | 265° |
| 2026-05-08 14:36 | 36.60777 | 2.21076 | 32971 ft | 371 kts | 276° |
| 2026-05-08 14:36 | 36.61496 | 2.17966 | 32967 ft | 379 kts | 286° |
| 2026-05-08 14:36 | 36.62774 | 2.15054 | 32965 ft | 390 kts | 297° |
| 2026-05-08 14:36 | 36.64403 | 2.12378 | 32970 ft | 393 kts | 298° |
| 2026-05-08 14:37 | 36.67724 | 2.06973 | 32962 ft | 393 kts | 298° |
| 2026-05-08 14:37 | 36.71043 | 2.01551 | 32964 ft | 393 kts | 298° |
| 2026-05-08 14:38 | 36.74353 | 1.96130 | 33018 ft | 393 kts | 298° |
| 2026-05-08 14:38 | 36.77667 | 1.90703 | 33021 ft | 392 kts | 298° |
| 2026-05-08 14:39 | 36.80966 | 1.85282 | 33008 ft | 392 kts | 298° |
| 2026-05-08 14:39 | 36.84252 | 1.79868 | 32994 ft | 391 kts | 298° |
| 2026-05-08 14:40 | 36.87515 | 1.74489 | 32988 ft | 391 kts | 298° |
| 2026-05-08 14:40 | 36.90801 | 1.69064 | 32984 ft | 391 kts | 298° |
| 2026-05-08 14:41 | 36.94084 | 1.63642 | 32978 ft | 391 kts | 298° |
| 2026-05-08 14:41 | 36.97363 | 1.58216 | 32983 ft | 391 kts | 297° |
| 2026-05-08 14:42 | 37.00637 | 1.52781 | 32998 ft | 391 kts | 297° |
| 2026-05-08 14:42 | 37.03937 | 1.47419 | 33010 ft | 393 kts | 299° |
| 2026-05-08 14:43 | 37.07462 | 1.42172 | 32986 ft | 395 kts | 301° |
| 2026-05-08 14:43 | 37.11045 | 1.36960 | 32979 ft | 394 kts | 300° |
| 2026-05-08 14:44 | 37.14594 | 1.31727 | 32976 ft | 394 kts | 300° |
| 2026-05-08 14:44 | 37.18114 | 1.26465 | 32974 ft | 393 kts | 300° |
| 2026-05-08 14:45 | 37.21627 | 1.21190 | 32970 ft | 394 kts | 300° |
| 2026-05-08 14:45 | 37.25134 | 1.15918 | 33003 ft | 393 kts | 300° |
| 2026-05-08 14:46 | 37.28617 | 1.10622 | 33006 ft | 391 kts | 298° |
| 2026-05-08 14:46 | 37.31880 | 1.05243 | 32997 ft | 389 kts | 297° |
| 2026-05-08 14:47 | 37.35086 | 0.99782 | 32989 ft | 388 kts | 297° |
| 2026-05-08 14:47 | 37.38321 | 0.94318 | 32580 ft | 390 kts | 297° |
| 2026-05-08 14:48 | 37.39949 | 0.91591 | 32199 ft | 391 kts | 297° |
| 2026-05-08 14:48 | 37.41589 | 0.88853 | 31828 ft | 392 kts | 298° |
| 2026-05-08 14:48 | 37.43233 | 0.86110 | 31458 ft | 394 kts | 298° |
| 2026-05-08 14:48 | 37.44882 | 0.83349 | 31048 ft | 396 kts | 298° |
| 2026-05-08 14:49 | 37.46536 | 0.80572 | 30561 ft | 397 kts | 298° |
| 2026-05-08 14:49 | 37.48195 | 0.77792 | 30110 ft | 397 kts | 299° |
| 2026-05-08 14:49 | 37.49850 | 0.75024 | 29588 ft | 395 kts | 299° |
| 2026-05-08 14:49 | 37.51497 | 0.72262 | 29033 ft | 393 kts | 299° |
| 2026-05-08 14:50 | 37.53134 | 0.69510 | 28491 ft | 392 kts | 299° |
| 2026-05-08 14:50 | 37.54769 | 0.66762 | 27958 ft | 390 kts | 299° |
| 2026-05-08 14:50 | 37.56392 | 0.64025 | 27436 ft | 389 kts | 299° |
| 2026-05-08 14:50 | 37.57464 | 0.62214 | 27092 ft | 388 kts | 299° |
| 2026-05-08 14:51 | 37.59074 | 0.59492 | 26584 ft | 387 kts | 300° |
| 2026-05-08 14:51 | 37.61204 | 0.55885 | 25931 ft | 386 kts | 300° |
| 2026-05-08 14:51 | 37.62806 | 0.53175 | 25440 ft | 385 kts | 300° |
| 2026-05-08 14:51 | 37.64404 | 0.50471 | 24964 ft | 384 kts | 300° |
| 2026-05-08 14:52 | 37.66000 | 0.47763 | 24491 ft | 384 kts | 300° |
| 2026-05-08 14:52 | 37.68646 | 0.43274 | 23725 ft | 383 kts | 301° |
| 2026-05-08 14:52 | 37.70237 | 0.40574 | 23216 ft | 382 kts | 301° |
| 2026-05-08 14:53 | 37.71823 | 0.37883 | 22710 ft | 380 kts | 300° |
| 2026-05-08 14:53 | 37.73397 | 0.35208 | 22184 ft | 379 kts | 300° |
| 2026-05-08 14:53 | 37.74964 | 0.32543 | 21662 ft | 376 kts | 300° |
| 2026-05-08 14:53 | 37.76517 | 0.29895 | 21153 ft | 374 kts | 300° |
| 2026-05-08 14:54 | 37.78058 | 0.27263 | 20658 ft | 371 kts | 300° |
| 2026-05-08 14:54 | 37.79590 | 0.24648 | 20165 ft | 369 kts | 300° |
| 2026-05-08 14:54 | 37.81111 | 0.22046 | 19680 ft | 367 kts | 300° |
| 2026-05-08 14:54 | 37.82622 | 0.19461 | 19199 ft | 365 kts | 300° |
| 2026-05-08 14:55 | 37.84125 | 0.16889 | 18733 ft | 363 kts | 300° |
| 2026-05-08 14:55 | 37.85621 | 0.14327 | 18266 ft | 361 kts | 300° |
| 2026-05-08 14:55 | 37.87107 | 0.11781 | 17746 ft | 359 kts | 300° |
| 2026-05-08 14:55 | 37.88570 | 0.09272 | 17227 ft | 357 kts | 301° |
| 2026-05-08 14:56 | 37.90037 | 0.06752 | 16717 ft | 355 kts | 301° |
| 2026-05-08 14:56 | 37.91497 | 0.04245 | 16210 ft | 353 kts | 301° |
| 2026-05-08 14:56 | 37.92949 | 0.01748 | 15710 ft | 351 kts | 301° |
| 2026-05-08 14:56 | 37.94395 | -0.00741 | 15250 ft | 350 kts | 301° |
| 2026-05-08 14:57 | 37.95833 | -0.03215 | 14764 ft | 348 kts | 301° |
| 2026-05-08 14:57 | 37.97270 | -0.05684 | 14291 ft | 347 kts | 301° |
| 2026-05-08 14:57 | 37.98698 | -0.08141 | 13818 ft | 345 kts | 301° |
| 2026-05-08 14:57 | 38.00121 | -0.10591 | 13306 ft | 344 kts | 301° |
| 2026-05-08 14:58 | 38.01534 | -0.13027 | 12784 ft | 342 kts | 301° |
| 2026-05-08 14:58 | 38.02936 | -0.15447 | 12270 ft | 340 kts | 301° |
| 2026-05-08 14:58 | 38.04330 | -0.17860 | 11769 ft | 338 kts | 301° |
| 2026-05-08 14:58 | 38.05714 | -0.20254 | 11274 ft | 335 kts | 301° |
| 2026-05-08 14:59 | 38.07070 | -0.22602 | 10788 ft | 333 kts | 301° |
| 2026-05-08 14:59 | 38.09796 | -0.27333 | 10166 ft | 328 kts | 302° |
| 2026-05-08 14:59 | 38.11125 | -0.29636 | 9932 ft | 325 kts | 302° |
| 2026-05-08 15:00 | 38.12436 | -0.31902 | 9791 ft | 312 kts | 302° |
| 2026-05-08 15:00 | 38.13700 | -0.34079 | 9658 ft | 300 kts | 302° |
| 2026-05-08 15:00 | 38.14911 | -0.36171 | 9520 ft | 288 kts | 301° |
| 2026-05-08 15:00 | 38.16076 | -0.38195 | 9398 ft | 281 kts | 301° |
| 2026-05-08 15:01 | 38.17224 | -0.40198 | 9263 ft | 279 kts | 301° |
| 2026-05-08 15:01 | 38.18365 | -0.42194 | 9132 ft | 279 kts | 301° |
| 2026-05-08 15:01 | 38.19499 | -0.44176 | 9010 ft | 272 kts | 302° |
| 2026-05-08 15:01 | 38.20592 | -0.46082 | 8874 ft | 262 kts | 302° |
| 2026-05-08 15:02 | 38.21645 | -0.47914 | 8744 ft | 251 kts | 302° |
| 2026-05-08 15:02 | 38.22645 | -0.49660 | 8617 ft | 244 kts | 302° |
| 2026-05-08 15:02 | 38.23640 | -0.51399 | 8488 ft | 243 kts | 302° |
| 2026-05-08 15:02 | 38.24631 | -0.53134 | 8363 ft | 242 kts | 302° |
| 2026-05-08 15:03 | 38.25620 | -0.54874 | 8240 ft | 242 kts | 302° |
| 2026-05-08 15:03 | 38.26644 | -0.56580 | 8113 ft | 244 kts | 309° |
| 2026-05-08 15:03 | 38.27926 | -0.58007 | 7988 ft | 247 kts | 321° |
| 2026-05-08 15:03 | 38.29333 | -0.59268 | 7863 ft | 247 kts | 321° |
| 2026-05-08 15:04 | 38.30730 | -0.60529 | 7734 ft | 246 kts | 321° |
| 2026-05-08 15:04 | 38.32127 | -0.61793 | 7615 ft | 246 kts | 321° |
| 2026-05-08 15:04 | 38.33518 | -0.63053 | 7479 ft | 245 kts | 321° |
| 2026-05-08 15:04 | 38.34911 | -0.64316 | 7368 ft | 246 kts | 321° |
| 2026-05-08 15:05 | 38.36306 | -0.65580 | 7244 ft | 246 kts | 321° |
| 2026-05-08 15:05 | 38.37699 | -0.66844 | 7118 ft | 245 kts | 322° |
| 2026-05-08 15:05 | 38.39087 | -0.68104 | 7005 ft | 245 kts | 322° |
| 2026-05-08 15:05 | 38.40449 | -0.69343 | 6949 ft | 243 kts | 322° |
| 2026-05-08 15:06 | 38.41832 | -0.70599 | 6968 ft | 244 kts | 322° |
| 2026-05-08 15:06 | 38.43216 | -0.71855 | 6973 ft | 244 kts | 322° |
| 2026-05-08 15:06 | 38.44597 | -0.73112 | 6974 ft | 244 kts | 321° |
| 2026-05-08 15:06 | 38.45980 | -0.74374 | 6975 ft | 244 kts | 322° |
| 2026-05-08 15:07 | 38.47363 | -0.75636 | 6975 ft | 244 kts | 322° |
| 2026-05-08 15:07 | 38.48744 | -0.76896 | 6981 ft | 244 kts | 322° |
| 2026-05-08 15:07 | 38.50118 | -0.78170 | 6976 ft | 243 kts | 317° |
| 2026-05-08 15:07 | 38.51191 | -0.79799 | 6976 ft | 238 kts | 295° |
| 2026-05-08 15:08 | 38.51730 | -0.81776 | 6972 ft | 235 kts | 276° |
| 2026-05-08 15:08 | 38.51778 | -0.83151 | 6936 ft | 235 kts | 264° |
| 2026-05-08 15:08 | 38.51129 | -0.85768 | 6762 ft | 233 kts | 238° |
| 2026-05-08 15:08 | 38.50084 | -0.87346 | 6643 ft | 233 kts | 224° |
| 2026-05-08 15:09 | 38.48893 | -0.88756 | 6527 ft | 234 kts | 222° |
| 2026-05-08 15:09 | 38.47643 | -0.90103 | 6410 ft | 236 kts | 219° |
| 2026-05-08 15:09 | 38.46346 | -0.91361 | 6285 ft | 234 kts | 216° |
| 2026-05-08 15:09 | 38.45001 | -0.92536 | 6156 ft | 234 kts | 214° |
| 2026-05-08 15:10 | 38.43626 | -0.93621 | 6023 ft | 232 kts | 211° |
| 2026-05-08 15:10 | 38.42212 | -0.94617 | 5956 ft | 231 kts | 208° |
| 2026-05-08 15:10 | 38.40750 | -0.95523 | 5851 ft | 234 kts | 205° |
| 2026-05-08 15:10 | 38.39249 | -0.96337 | 5715 ft | 234 kts | 202° |
| 2026-05-08 15:11 | 38.37756 | -0.97058 | 5601 ft | 225 kts | 201° |
| 2026-05-08 15:11 | 38.36321 | -0.97682 | 5502 ft | 216 kts | 190° |
| 2026-05-08 15:11 | 38.34882 | -0.97426 | 5508 ft | 208 kts | 153° |
| 2026-05-08 15:11 | 38.33899 | -0.96199 | 5509 ft | 194 kts | 117° |
| 2026-05-08 15:12 | 38.33581 | -0.94588 | 5501 ft | 182 kts | 103° |
| 2026-05-08 15:12 | 38.33357 | -0.93066 | 5485 ft | 170 kts | 102° |
| 2026-05-08 15:12 | 38.33148 | -0.91592 | 5358 ft | 167 kts | 101° |
| 2026-05-08 15:12 | 38.32947 | -0.90136 | 5163 ft | 167 kts | 102° |
| 2026-05-08 15:13 | 38.32749 | -0.88691 | 4965 ft | 166 kts | 102° |
| 2026-05-08 15:13 | 38.32551 | -0.87239 | 4751 ft | 167 kts | 102° |
| 2026-05-08 15:13 | 38.32350 | -0.85771 | 4526 ft | 169 kts | 101° |
| 2026-05-08 15:13 | 38.32148 | -0.84295 | 4299 ft | 170 kts | 102° |
| 2026-05-08 15:14 | 38.31945 | -0.82808 | 4067 ft | 170 kts | 102° |
| 2026-05-08 15:14 | 38.31742 | -0.81328 | 3844 ft | 170 kts | 102° |
| 2026-05-08 15:14 | 38.31541 | -0.79861 | 3617 ft | 170 kts | 102° |
| 2026-05-08 15:14 | 38.31339 | -0.78385 | 3396 ft | 168 kts | 102° |
| 2026-05-08 15:15 | 38.31136 | -0.76909 | 3177 ft | 170 kts | 102° |
| 2026-05-08 15:15 | 38.30932 | -0.75428 | 2934 ft | 169 kts | 100° |
| 2026-05-08 15:15 | 38.30730 | -0.73959 | 2729 ft | 168 kts | 100° |
| 2026-05-08 15:15 | 38.30529 | -0.72497 | 2496 ft | 167 kts | 100° |
| 2026-05-08 15:16 | 38.30329 | -0.71048 | 2272 ft | 166 kts | 100° |
| 2026-05-08 15:16 | 38.30133 | -0.69628 | 2053 ft | 159 kts | 100° |
| 2026-05-08 15:16 | 38.29944 | -0.68264 | 1853 ft | 154 kts | 101° |
| 2026-05-08 15:16 | 38.29765 | -0.66964 | 1684 ft | 145 kts | 101° |
| 2026-05-08 15:17 | 38.29594 | -0.65723 | 1465 ft | 140 kts | 102° |
| 2026-05-08 15:17 | 38.29434 | -0.64501 | 1275 ft | 140 kts | 102° |
| 2026-05-08 15:17 | 38.29272 | -0.63285 | 1069 ft | 139 kts | 103° |
| 2026-05-08 15:17 | 38.29093 | -0.62078 | 873 ft | 138 kts | 103° |
| 2026-05-08 15:18 | 38.28919 | -0.60886 | 704 ft | 137 kts | 102° |
| 2026-05-08 15:18 | 38.28751 | -0.59691 | 533 ft | 137 kts | 102° |
| 2026-05-08 15:18 | 38.28588 | -0.58503 | 337 ft | 135 kts | 102° |
| 2026-05-08 15:18 | 38.28429 | -0.57350 | 188 ft | 133 kts | 102° |
| 2026-05-08 15:19 | 38.28281 | -0.56302 | 113 ft | 99 kts | 101° |
| 2026-05-08 15:19 | 38.28193 | -0.55649 | 100 ft | 50 kts | 100° |
| 2026-05-08 15:19 | 38.28152 | -0.55360 | 91 ft | 29 kts | 100° |
| 2026-05-08 15:19 | 38.28121 | -0.55102 | 82 ft | 27 kts | 94° |
| 2026-05-08 15:20 | 38.28156 | -0.54856 | 68 ft | 30 kts | 70° |
| 2026-05-08 15:20 | 38.28207 | -0.54720 | 60 ft | 12 kts | 33° |
| 2026-05-08 15:20 | 38.28248 | -0.54765 | 68 ft | 7 kts | 283° |
| 2026-05-08 15:20 | 38.28253 | -0.54805 | 72 ft | 2 kts | 280° |
| 2026-05-08 15:21 | 38.28254 | -0.54809 | 72 ft | 0 kts | 280° |
| 2026-05-08 15:21 | 38.28254 | -0.54811 | 62 ft | 2 kts | 280° |
| 2026-05-08 15:21 | 38.28260 | -0.54856 | 73 ft | 9 kts | 279° |
| 2026-05-08 15:21 | 38.28274 | -0.54958 | 71 ft | 14 kts | 280° |
| 2026-05-08 15:22 | 38.28291 | -0.55078 | 81 ft | 11 kts | 281° |
| 2026-05-08 15:22 | 38.28303 | -0.55157 | 85 ft | 9 kts | 281° |
| 2026-05-08 15:22 | 38.28341 | -0.55206 | 89 ft | 7 kts | 359° |
| 2026-05-08 15:22 | 38.28373 | -0.55180 | 90 ft | 7 kts | 46° |
| 2026-05-08 15:23 | 38.28435 | -0.55181 | 90 ft | 12 kts | 301° |
| 2026-05-08 15:23 | 38.28455 | -0.55244 | 88 ft | 5 kts | 328° |
| 2026-05-08 15:23 | 38.28481 | -0.55241 | 88 ft | 3 kts | 7° |
| 2026-05-08 15:23 | 38.28502 | -0.55237 | 88 ft | 2 kts | 10° |
| 2026-05-08 15:24 | 38.28517 | -0.55233 | 91 ft | 2 kts | 10° |
| 2026-05-08 15:24 | 38.28519 | -0.55233 | 91 ft | 0 kts | 10° |